Time;durP1;ratioP1;P1;durP2;ratioP2;P2;SDS_P1;SDS_P2;PMS_P1;PMS_P2;Temp;Humidity;BMP_temperature;BMP_pressure;BME280_temperature;BME280_humidity;BME280_pressure;Samples;Min_cycle;Max_cycle;Signal;HPM_P1;HPM_P2
2023/08/20 00:02:07;;;;;;;8.88;1.52;;;15.20;99.90;;;;;;5047738;28;20052;-62
2023/08/20 00:04:36;;;;;;;10.02;1.75;;;15.10;99.90;;;;;;5051489;28;20045;-62
2023/08/20 00:07:05;;;;;;;10.00;1.63;;;15.10;99.90;;;;;;5047285;28;20061;-62
2023/08/20 00:09:33;;;;;;;4.70;1.10;;;15.10;99.90;;;;;;5044985;28;20462;-62
2023/08/20 00:12:02;;;;;;;12.80;1.52;;;15.10;99.90;;;;;;5039632;28;20056;-61
2023/08/20 00:14:54;;;;;;;11.20;2.05;;;15.00;99.90;;;;;;5044015;28;20123;-63
2023/08/20 00:17:24;;;;;;;11.70;1.50;;;15.00;99.90;;;;;;5028862;28;20056;-63
2023/08/20 00:19:53;;;;;;;;;;;15.00;99.90;;;;;;5047482;28;20060;-62
2023/08/20 00:22:23;;;;;;;9.82;1.98;;;15.00;99.90;;;;;;5037135;28;19932;-62
2023/08/20 00:24:52;;;;;;;9.27;1.73;;;15.00;99.90;;;;;;5041602;28;20128;-62
2023/08/20 00:27:21;;;;;;;11.60;1.63;;;15.00;99.90;;;;;;5028201;28;20052;-62
2023/08/20 00:29:49;;;;;;;9.45;1.60;;;15.00;99.90;;;;;;5043847;28;20044;-62
2023/08/20 00:32:16;;;;;;;5.68;1.25;;;15.00;99.90;;;;;;5050496;28;20045;-62
2023/08/20 00:34:44;;;;;;;11.32;2.17;;;15.00;99.90;;;;;;5036569;28;20620;-62
2023/08/20 00:37:12;;;;;;;10.68;1.60;;;15.00;99.90;;;;;;5038998;28;20048;-61
2023/08/20 00:39:40;;;;;;;8.20;1.42;;;15.10;99.90;;;;;;5041552;28;20048;-61
2023/08/20 00:42:08;;;;;;;12.18;1.70;;;15.10;99.90;;;;;;5044612;28;20485;-61
2023/08/20 00:44:35;;;;;;;14.25;1.33;;;15.20;99.90;;;;;;5046050;28;20053;-60
2023/08/20 00:47:04;;;;;;;9.85;1.80;;;15.20;99.90;;;;;;5028562;28;20056;-60
2023/08/20 00:49:32;;;;;;;10.53;2.00;;;15.20;99.90;;;;;;5010797;28;20405;-61
2023/08/20 00:52:01;;;;;;;11.38;1.65;;;15.20;99.90;;;;;;5046068;28;20045;-61
2023/08/20 00:54:32;;;;;;;12.20;1.77;;;15.20;99.90;;;;;;5045979;28;20045;-61
2023/08/20 00:57:02;;;;;;;10.43;1.75;;;15.20;99.90;;;;;;5036119;28;20041;-62
2023/08/20 00:59:31;;;;;;;10.00;1.80;;;15.20;99.90;;;;;;5027689;28;20057;-62
2023/08/20 01:02:00;;;;;;;9.13;1.75;;;15.10;99.90;;;;;;5037992;28;20048;-61
2023/08/20 01:04:29;;;;;;;10.88;1.70;;;15.10;99.90;;;;;;5061714;28;20037;-62
2023/08/20 01:06:57;;;;;;;10.30;1.88;;;15.10;99.90;;;;;;5028012;28;20052;-60
2023/08/20 01:09:55;;;;;;;6.85;1.52;;;15.10;99.90;;;;;;5045913;28;20053;-60
2023/08/20 01:12:23;;;;;;;11.15;1.92;;;15.10;99.90;;;;;;5027443;28;20048;-61
2023/08/20 01:14:51;;;;;;;20.08;2.17;;;15.00;99.90;;;;;;5062885;28;20040;-61
2023/08/20 01:17:19;;;;;;;10.40;1.90;;;15.00;99.90;;;;;;5037065;28;20049;-61
2023/08/20 01:19:47;;;;;;;12.10;1.83;;;15.00;99.90;;;;;;5060860;28;20045;-61
2023/08/20 01:22:45;;;;;;;8.30;1.90;;;15.00;99.90;;;;;;5032494;28;20045;-61
2023/08/20 01:25:41;;;;;;;12.98;2.05;;;15.00;99.90;;;;;;5045197;28;20033;-62
2023/08/20 01:28:28;;;;;;;13.48;2.30;;;15.00;99.90;;;;;;5043618;28;20048;-63
2023/08/20 01:30:57;;;;;;;10.18;2.03;;;15.00;99.90;;;;;;5042676;28;20042;-62
2023/08/20 01:33:25;;;;;;;15.53;2.43;;;15.00;99.90;;;;;;5050935;28;20042;-61
2023/08/20 01:35:54;;;;;;;8.63;1.65;;;15.00;99.90;;;;;;5037935;28;20052;-62
2023/08/20 01:38:22;;;;;;;9.20;1.70;;;15.00;99.90;;;;;;5036229;28;20052;-61
2023/08/20 01:40:50;;;;;;;9.70;1.50;;;15.00;99.90;;;;;;5038855;28;20045;-62
2023/08/20 01:43:17;;;;;;;10.57;1.77;;;14.90;99.90;;;;;;5034164;28;20050;-61
2023/08/20 01:45:46;;;;;;;14.65;1.92;;;14.90;99.90;;;;;;5036563;28;20046;-61
2023/08/20 01:48:15;;;;;;;13.45;2.10;;;14.90;99.90;;;;;;5053139;28;20053;-62
2023/08/20 01:50:45;;;;;;;11.27;1.90;;;14.90;99.90;;;;;;5052932;28;20052;-61
2023/08/20 01:53:13;;;;;;;6.25;2.42;;;14.90;99.90;;;;;;5054110;28;20507;-62
2023/08/20 01:55:42;;;;;;;12.53;1.97;;;14.90;99.90;;;;;;5053984;28;20041;-61
2023/08/20 01:58:10;;;;;;;10.25;2.70;;;14.80;99.90;;;;;;5052291;28;20067;-61
2023/08/20 02:00:38;;;;;;;10.40;1.80;;;14.80;99.90;;;;;;5052673;28;20389;-62
2023/08/20 02:03:06;;;;;;;7.90;1.65;;;14.70;99.90;;;;;;5066122;28;20546;-62
2023/08/20 02:05:34;;;;;;;20.38;2.75;;;14.70;99.90;;;;;;5032671;28;20503;-61
2023/08/20 02:08:02;;;;;;;10.00;1.65;;;14.60;99.90;;;;;;5038058;28;20045;-62
2023/08/20 02:10:32;;;;;;;14.40;2.08;;;14.60;99.90;;;;;;5052496;28;20040;-61
2023/08/20 02:13:00;;;;;;;13.50;2.05;;;14.60;99.90;;;;;;5046684;28;20044;-61
2023/08/20 02:15:27;;;;;;;11.38;2.55;;;14.60;99.90;;;;;;5037264;28;20505;-61
2023/08/20 02:17:56;;;;;;;6.18;1.55;;;14.60;99.90;;;;;;5053568;28;20045;-60
2023/08/20 02:20:24;;;;;;;10.38;1.95;;;14.60;99.90;;;;;;5053818;28;20492;-60
2023/08/20 02:22:51;;;;;;;7.68;1.42;;;14.50;99.90;;;;;;5052506;28;20052;-60
2023/08/20 02:25:19;;;;;;;13.32;1.67;;;14.50;99.90;;;;;;5053221;28;20044;-60
2023/08/20 02:27:47;;;;;;;9.35;1.98;;;14.40;99.90;;;;;;5049686;28;20048;-60
2023/08/20 02:30:14;;;;;;;12.95;2.15;;;14.40;99.90;;;;;;5051775;28;20053;-61
2023/08/20 02:32:43;;;;;;;12.90;2.03;;;14.40;99.90;;;;;;5063836;28;20055;-61
2023/08/20 02:35:12;;;;;;;9.90;1.48;;;14.40;99.90;;;;;;5073643;28;20040;-62
2023/08/20 02:37:41;;;;;;;11.07;1.73;;;14.40;99.90;;;;;;5071422;28;20047;-62
2023/08/20 02:40:13;;;;;;;15.38;2.60;;;14.40;99.90;;;;;;5051979;28;20064;-61
2023/08/20 02:42:40;;;;;;;8.55;1.60;;;14.40;99.90;;;;;;5051952;28;20053;-60
2023/08/20 02:45:08;;;;;;;10.70;2.22;;;14.40;99.90;;;;;;5051888;28;20044;-61
2023/08/20 02:47:36;;;;;;;10.27;2.35;;;14.40;99.90;;;;;;5052158;28;20045;-62
2023/08/20 02:50:05;;;;;;;11.38;1.92;;;14.40;99.90;;;;;;5051642;28;20511;-61
2023/08/20 02:52:33;;;;;;;10.35;1.92;;;14.40;99.90;;;;;;5028354;28;20038;-61
2023/08/20 02:55:00;;;;;;;11.02;1.60;;;14.30;99.90;;;;;;5048096;28;20494;-61
2023/08/20 02:57:28;;;;;;;10.32;1.58;;;14.30;99.90;;;;;;5031623;28;20049;-61
2023/08/20 02:59:56;;;;;;;8.00;1.52;;;14.30;99.90;;;;;;5051641;28;20044;-62
2023/08/20 03:02:24;;;;;;;10.18;1.90;;;14.30;99.90;;;;;;5060981;28;20052;-62
2023/08/20 03:04:52;;;;;;;12.68;1.83;;;14.30;99.90;;;;;;5071701;28;20043;-61
2023/08/20 03:07:20;;;;;;;7.72;1.42;;;14.30;99.90;;;;;;5072652;28;20059;-61
2023/08/20 03:09:51;;;;;;;10.52;2.20;;;14.30;99.90;;;;;;5021412;28;20508;-61
2023/08/20 03:12:18;;;;;;;12.07;1.58;;;14.30;99.90;;;;;;5052587;28;20045;-60
2023/08/20 03:14:46;;;;;;;10.65;1.75;;;14.30;99.90;;;;;;5052605;28;20073;-60
2023/08/20 03:17:14;;;;;;;7.93;1.58;;;14.20;99.90;;;;;;5052665;28;20045;-60
2023/08/20 03:19:55;;;;;;;8.50;2.38;;;14.10;99.90;;;;;;5051383;28;20041;-61
2023/08/20 03:22:24;;;;;;;10.48;1.75;;;14.10;99.90;;;;;;5052128;28;20061;-60
2023/08/20 03:24:52;;;;;;;10.65;1.67;;;14.10;99.90;;;;;;5052504;28;20041;-61
2023/08/20 03:27:24;;;;;;;5.70;1.25;;;14.00;99.90;;;;;;5048751;28;20389;-61
2023/08/20 03:29:52;;;;;;;13.23;2.25;;;14.00;99.90;;;;;;5052328;28;20052;-61
2023/08/20 03:32:21;;;;;;;7.45;1.90;;;14.00;99.90;;;;;;5059797;28;20045;-62
2023/08/20 03:34:50;;;;;;;8.05;2.17;;;13.90;99.90;;;;;;5071294;28;20044;-60
2023/08/20 03:37:19;;;;;;;9.47;1.97;;;13.90;99.90;;;;;;5071086;28;20048;-60
2023/08/20 03:39:46;;;;;;;10.68;2.28;;;13.90;99.90;;;;;;5055303;28;20059;-60
2023/08/20 03:42:14;;;;;;;8.25;1.95;;;13.80;99.90;;;;;;5051569;28;20485;-60
2023/08/20 03:44:42;;;;;;;6.75;1.90;;;13.80;99.90;;;;;;5052013;28;20642;-60
2023/08/20 03:47:12;;;;;;;11.23;2.05;;;13.80;99.90;;;;;;5050801;28;20053;-60
2023/08/20 03:49:40;;;;;;;8.52;2.25;;;13.70;99.90;;;;;;5050811;28;20484;-61
2023/08/20 03:52:08;;;;;;;11.20;1.95;;;13.70;99.90;;;;;;5048403;28;20057;-60
2023/08/20 03:54:35;;;;;;;8.98;2.22;;;13.70;99.90;;;;;;5050762;28;20112;-60
2023/08/20 03:57:03;;;;;;;13.27;2.40;;;13.60;99.90;;;;;;5051870;28;20064;-60
2023/08/20 03:59:31;;;;;;;8.25;2.30;;;13.60;99.90;;;;;;5050306;28;20052;-61
2023/08/20 04:01:59;;;;;;;11.02;2.55;;;13.60;99.90;;;;;;5056131;28;20037;-60
2023/08/20 04:04:27;;;;;;;6.95;2.20;;;13.60;99.90;;;;;;5071705;28;20056;-60
2023/08/20 04:06:55;;;;;;;7.55;2.17;;;13.50;99.90;;;;;;5071685;28;20048;-60
2023/08/20 04:09:23;;;;;;;8.23;2.28;;;13.50;99.90;;;;;;5058340;28;20048;-60
2023/08/20 04:11:50;;;;;;;9.95;2.67;;;13.50;99.90;;;;;;5051573;28;20041;-60
2023/08/20 04:14:18;;;;;;;6.70;2.53;;;13.50;99.90;;;;;;5050281;28;20044;-60
2023/08/20 04:16:46;;;;;;;14.07;2.47;;;13.40;99.90;;;;;;5050224;28;20381;-60
2023/08/20 04:19:14;;;;;;;12.55;2.60;;;13.40;99.90;;;;;;5048766;28;20052;-61
2023/08/20 04:21:42;;;;;;;8.25;2.45;;;13.40;99.90;;;;;;5050233;28;20366;-60
2023/08/20 04:24:09;;;;;;;9.23;2.38;;;13.40;99.90;;;;;;5051512;28;20420;-60
2023/08/20 04:26:37;;;;;;;11.20;3.78;;;13.30;99.90;;;;;;5050146;28;20419;-61
2023/08/20 04:29:05;;;;;;;6.03;2.40;;;13.30;99.90;;;;;;5047614;28;20045;-60
2023/08/20 04:31:33;;;;;;;7.75;2.20;;;13.30;99.90;;;;;;5053487;28;20140;-60
2023/08/20 04:34:06;;;;;;;9.25;2.30;;;13.20;99.90;;;;;;5070219;28;20480;-60
2023/08/20 04:36:53;;;;;;;11.13;2.55;;;13.20;99.90;;;;;;5070144;28;20036;-60
2023/08/20 04:39:21;;;;;;;14.07;3.00;;;13.10;99.90;;;;;;5053431;28;20415;-60
2023/08/20 04:41:53;;;;;;;12.02;2.05;;;13.10;99.90;;;;;;5049911;28;20048;-60
2023/08/20 04:44:22;;;;;;;8.55;1.90;;;13.00;99.90;;;;;;5049909;28;20362;-60
2023/08/20 04:46:57;;;;;;;8.15;2.15;;;13.00;99.90;;;;;;5046044;28;20511;-60
2023/08/20 04:49:28;;;;;;;7.10;2.40;;;13.00;99.90;;;;;;5028719;28;20064;-61
2023/08/20 04:51:56;;;;;;;9.32;2.78;;;12.90;99.90;;;;;;5046583;28;20056;-60
2023/08/20 04:54:23;;;;;;;8.85;2.33;;;12.90;99.90;;;;;;5050678;28;20056;-60
2023/08/20 04:56:51;;;;;;;10.10;3.17;;;12.90;99.90;;;;;;5051905;28;20049;-60
2023/08/20 04:59:19;;;;;;;11.02;2.22;;;12.90;99.90;;;;;;5050109;28;20508;-60
2023/08/20 05:02:02;;;;;;;10.45;2.40;;;12.90;99.90;;;;;;5046539;28;20033;-59
2023/08/20 05:04:44;;;;;;;8.60;2.60;;;12.90;99.90;;;;;;5027042;28;20405;-60
2023/08/20 05:07:12;;;;;;;12.10;2.28;;;12.90;99.90;;;;;;5028513;28;20485;-60
2023/08/20 05:09:40;;;;;;;10.43;2.92;;;12.90;99.90;;;;;;5049519;28;20049;-61
2023/08/20 05:12:09;;;;;;;10.07;2.30;;;12.90;99.90;;;;;;5048917;28;20051;-60
2023/08/20 05:14:37;;;;;;;7.90;2.20;;;12.90;99.90;;;;;;5047226;28;20855;-61
2023/08/20 05:17:05;;;;;;;5.15;2.08;;;12.90;99.90;;;;;;5046544;28;20595;-61
2023/08/20 05:19:33;;;;;;;7.28;2.22;;;12.90;99.90;;;;;;5045381;28;20045;-60
2023/08/20 05:22:01;;;;;;;8.05;2.58;;;12.80;99.90;;;;;;5016453;28;20395;-61
2023/08/20 05:24:32;;;;;;;11.55;2.75;;;12.80;99.90;;;;;;5050097;28;20127;-61
2023/08/20 05:27:09;;;;;;;8.35;3.25;;;12.80;99.90;;;;;;5048871;28;20056;-61
2023/08/20 05:29:38;;;;;;;9.35;3.08;;;12.80;99.90;;;;;;5034187;28;20052;-60
2023/08/20 05:32:10;;;;;;;10.82;3.13;;;12.80;99.90;;;;;;5037769;28;20060;-60
2023/08/20 05:34:37;;;;;;;10.48;2.90;;;12.80;99.90;;;;;;5047191;28;20041;-60
2023/08/20 05:37:05;;;;;;;10.27;3.30;;;12.80;99.90;;;;;;5028306;28;20064;-61
2023/08/20 05:39:41;;;;;;;12.02;3.13;;;12.80;99.90;;;;;;5046309;28;20056;-61
2023/08/20 05:42:09;;;;;;;17.10;3.00;;;12.80;99.90;;;;;;5029482;28;20045;-61
2023/08/20 05:44:38;;;;;;;10.70;2.73;;;12.90;99.90;;;;;;5046312;28;20068;-61
2023/08/20 05:47:10;;;;;;;10.35;3.30;;;12.90;99.90;;;;;;5046664;28;20290;-61
2023/08/20 05:49:38;;;;;;;12.77;2.97;;;12.90;99.90;;;;;;5044577;28;20053;-62
2023/08/20 05:52:06;;;;;;;12.25;2.92;;;12.90;99.90;;;;;;5049242;28;20032;-62
2023/08/20 05:54:35;;;;;;;15.38;3.65;;;12.90;99.90;;;;;;5049850;28;20511;-60
2023/08/20 05:57:02;;;;;;;17.95;4.22;;;13.00;99.90;;;;;;5050797;28;20056;-60
2023/08/20 05:59:30;;;;;;;12.60;3.67;;;13.00;99.90;;;;;;5029774;28;20503;-61
2023/08/20 06:02:00;;;;;;;11.93;3.78;;;13.10;99.90;;;;;;5043217;28;20249;-60
2023/08/20 06:04:29;;;;;;;17.52;4.20;;;13.20;99.90;;;;;;5041777;28;20060;-61
2023/08/20 06:06:57;;;;;;;13.15;4.53;;;13.20;99.90;;;;;;5030004;28;20049;-60
2023/08/20 06:09:25;;;;;;;18.23;3.50;;;13.30;99.90;;;;;;5051339;28;20053;-61
2023/08/20 06:11:52;;;;;;;14.15;3.75;;;13.40;99.90;;;;;;5031256;28;20050;-62
2023/08/20 06:14:20;;;;;;;13.70;5.07;;;13.40;99.90;;;;;;5050543;28;20037;-60
2023/08/20 06:16:49;;;;;;;14.10;3.85;;;13.50;99.90;;;;;;5050277;28;20044;-61
2023/08/20 06:19:17;;;;;;;18.23;4.47;;;13.50;99.90;;;;;;5037535;28;20041;-61
2023/08/20 06:21:45;;;;;;;15.00;4.78;;;13.60;99.90;;;;;;5028718;28;20045;-61
2023/08/20 06:24:12;;;;;;;15.15;4.40;;;13.70;99.90;;;;;;5045382;28;20041;-61
2023/08/20 06:26:40;;;;;;;20.08;4.78;;;13.70;99.90;;;;;;5043732;28;20056;-60
2023/08/20 06:29:08;;;;;;;19.40;3.83;;;13.80;99.90;;;;;;5045892;28;20065;-61
2023/08/20 06:31:36;;;;;;;17.02;4.18;;;13.80;99.90;;;;;;5041873;28;20072;-61
2023/08/20 06:34:03;;;;;;;12.07;3.80;;;13.80;99.90;;;;;;5054761;28;20057;-61
2023/08/20 06:36:31;;;;;;;14.18;3.58;;;13.90;99.90;;;;;;5030134;28;20057;-61
2023/08/20 06:38:59;;;;;;;14.57;3.60;;;14.00;99.90;;;;;;5043825;28;20481;-61
2023/08/20 06:41:26;;;;;;;15.65;3.42;;;14.00;99.90;;;;;;5048787;28;20061;-61
2023/08/20 06:43:54;;;;;;;20.98;4.03;;;14.10;99.90;;;;;;5049136;28;20060;-62
2023/08/20 06:46:23;;;;;;;16.92;3.80;;;14.10;99.90;;;;;;5049539;28;20044;-60
2023/08/20 06:48:51;;;;;;;13.37;3.30;;;14.20;99.90;;;;;;5042525;28;20053;-61
2023/08/20 06:51:21;;;;;;;16.00;3.50;;;14.30;99.90;;;;;;5029662;28;20053;-61
2023/08/20 06:53:49;;;;;;;15.57;3.47;;;14.30;99.90;;;;;;5062027;28;20364;-61
2023/08/20 06:56:17;;;;;;;10.75;3.25;;;14.40;99.90;;;;;;5052681;28;20044;-61
2023/08/20 06:58:45;;;;;;;14.43;3.15;;;14.40;99.90;;;;;;5052444;28;20392;-60
2023/08/20 07:01:14;;;;;;;17.30;3.20;;;14.50;99.90;;;;;;5048560;28;20208;-61
2023/08/20 07:03:44;;;;;;;17.58;2.90;;;14.50;99.90;;;;;;5041235;28;20513;-61
2023/08/20 07:06:14;;;;;;;13.83;3.70;;;14.50;99.90;;;;;;5025278;28;20057;-61
2023/08/20 07:08:42;;;;;;;11.63;3.35;;;14.50;99.90;;;;;;5060644;28;20044;-60
2023/08/20 07:11:10;;;;;;;10.45;2.90;;;14.50;99.90;;;;;;5047909;28;20045;-61
2023/08/20 07:13:37;;;;;;;11.75;3.25;;;14.50;99.90;;;;;;5049398;28;20053;-61
2023/08/20 07:16:07;;;;;;;16.75;4.00;;;14.60;99.90;;;;;;5042476;28;20060;-60
2023/08/20 07:18:35;;;;;;;14.20;4.28;;;14.60;99.90;;;;;;5049157;28;20056;-60
2023/08/20 07:21:03;;;;;;;13.77;3.38;;;14.70;99.90;;;;;;5048750;28;20049;-60
2023/08/20 07:23:30;;;;;;;8.57;2.55;;;14.80;99.90;;;;;;5048752;28;20059;-61
2023/08/20 07:26:11;;;;;;;10.75;2.80;;;14.90;99.90;;;;;;5049074;28;20049;-61
2023/08/20 07:28:59;;;;;;;10.65;2.67;;;15.00;99.90;;;;;;5046095;28;20077;-61
2023/08/20 07:31:30;;;;;;;11.40;2.30;;;15.20;99.90;;;;;;5049299;28;20052;-61
2023/08/20 07:33:59;;;;;;;15.73;2.97;;;15.30;99.90;;;;;;5049562;28;20048;-61
2023/08/20 07:36:30;;;;;;;9.85;2.90;;;15.40;99.90;;;;;;5048902;28;20040;-60
2023/08/20 07:38:59;;;;;;;9.60;2.80;;;15.40;99.90;;;;;;5064263;28;20049;-61
2023/08/20 07:41:29;;;;;;;9.43;2.85;;;15.60;99.90;;;;;;5068852;28;20036;-61
2023/08/20 07:43:57;;;;;;;8.93;2.42;;;15.60;99.90;;;;;;5047631;28;20045;-61
2023/08/20 07:46:24;;;;;;;9.82;2.50;;;15.70;99.90;;;;;;5048342;28;20041;-61
2023/08/20 07:48:55;;;;;;;7.70;2.15;;;15.80;99.90;;;;;;5037567;28;20046;-61
2023/08/20 07:51:23;;;;;;;9.02;2.40;;;16.20;99.90;;;;;;5029277;28;20053;-62
2023/08/20 07:53:51;;;;;;;10.32;2.72;;;16.20;99.90;;;;;;5045042;28;20056;-62
2023/08/20 07:56:18;;;;;;;10.15;3.38;;;16.40;99.90;;;;;;5030697;28;20123;-62
2023/08/20 07:58:46;;;;;;;10.93;2.95;;;16.50;99.90;;;;;;5043007;28;20523;-62
2023/08/20 08:01:14;;;;;;;11.70;3.05;;;16.60;99.90;;;;;;5028828;28;20045;-63
2023/08/20 08:03:41;;;;;;;12.50;2.78;;;16.70;99.90;;;;;;5052454;28;20065;-62
2023/08/20 08:06:09;;;;;;;10.23;2.55;;;16.80;99.90;;;;;;5048359;28;20052;-63
2023/08/20 08:08:42;;;;;;;16.83;2.67;;;16.80;99.90;;;;;;5047873;28;20041;-61
2023/08/20 08:11:09;;;;;;;11.20;2.75;;;16.90;99.90;;;;;;5048027;28;20045;-63
2023/08/20 08:13:37;;;;;;;11.27;3.67;;;16.80;99.90;;;;;;5040648;28;20403;-62
2023/08/20 08:16:05;;;;;;;10.07;2.53;;;16.80;99.90;;;;;;5039775;28;20052;-61
2023/08/20 08:18:32;;;;;;;9.13;1.95;;;16.80;99.90;;;;;;5047975;28;20041;-61
2023/08/20 08:21:00;;;;;;;13.50;2.45;;;16.90;99.90;;;;;;5048160;28;20056;-61
2023/08/20 08:23:28;;;;;;;15.80;4.40;;;16.90;99.90;;;;;;5059952;28;20487;-62
2023/08/20 08:25:55;;;;;;;19.17;3.67;;;16.90;99.90;;;;;;5042420;28;20041;-61
2023/08/20 08:28:23;;;;;;;8.95;2.70;;;17.00;99.90;;;;;;5028734;28;20052;-61
2023/08/20 08:30:51;;;;;;;8.90;2.40;;;17.10;99.90;;;;;;5038103;28;20041;-62
2023/08/20 08:33:18;;;;;;;11.45;2.38;;;17.20;99.90;;;;;;5058526;28;20044;-63
2023/08/20 08:35:46;;;;;;;8.18;2.65;;;17.40;99.90;;;;;;5037613;28;20041;-61
2023/08/20 08:38:14;;;;;;;7.47;1.80;;;17.50;99.90;;;;;;5028976;28;20050;-61
2023/08/20 08:40:42;;;;;;;14.15;2.72;;;17.70;99.90;;;;;;5034539;28;20435;-60
2023/08/20 08:43:16;;;;;;;5.43;1.48;;;17.90;99.90;;;;;;5042408;28;20050;-62
2023/08/20 08:45:49;;;;;;;8.55;1.75;;;18.00;99.90;;;;;;5040649;28;20049;-61
2023/08/20 08:48:18;;;;;;;8.43;2.00;;;18.00;99.90;;;;;;5051515;28;20040;-61
2023/08/20 08:50:46;;;;;;;5.45;1.80;;;18.10;99.90;;;;;;5058393;28;20041;-61
2023/08/20 08:53:14;;;;;;;8.10;2.25;;;18.20;99.90;;;;;;5037820;28;20056;-61
2023/08/20 08:55:42;;;;;;;9.73;1.80;;;18.40;99.90;;;;;;5043814;28;20052;-62
2023/08/20 08:58:10;;;;;;;9.57;1.98;;;18.50;99.90;;;;;;5034898;28;20045;-62
2023/08/20 09:00:38;;;;;;;8.45;2.00;;;18.60;99.90;;;;;;5038603;28;20049;-62
2023/08/20 09:03:05;;;;;;;11.38;1.90;;;18.70;99.90;;;;;;5044451;28;20648;-62
2023/08/20 09:05:49;;;;;;;6.75;2.65;;;18.70;99.90;;;;;;5036282;28;20990;-61
2023/08/20 09:08:21;;;;;;;9.15;2.03;;;18.90;99.90;;;;;;5028833;28;20076;-61
2023/08/20 09:10:53;;;;;;;7.75;2.10;;;19.00;99.90;;;;;;5032599;28;20534;-61
2023/08/20 09:13:25;;;;;;;7.97;1.85;;;19.20;99.90;;;;;;5034856;28;20049;-61
2023/08/20 09:15:53;;;;;;;4.93;1.52;;;19.30;99.90;;;;;;5026804;28;20037;-62
2023/08/20 09:18:21;;;;;;;5.22;1.30;;;19.30;99.90;;;;;;5030747;28;20049;-62
2023/08/20 09:20:49;;;;;;;10.20;1.98;;;19.40;99.90;;;;;;5031334;28;20052;-61
2023/08/20 09:23:17;;;;;;;7.00;1.10;;;19.60;99.90;;;;;;5042475;28;20045;-61
2023/08/20 09:25:46;;;;;;;6.43;1.38;;;19.70;99.90;;;;;;5036660;28;20048;-62
2023/08/20 09:28:14;;;;;;;9.27;1.23;;;19.80;99.90;;;;;;5034640;28;20477;-61
2023/08/20 09:30:55;;;;;;;6.82;2.05;;;19.90;99.90;;;;;;5029947;28;20045;-61
2023/08/20 09:33:23;;;;;;;9.90;1.60;;;19.90;99.90;;;;;;5034713;28;20046;-63
2023/08/20 09:35:53;;;;;;;3.47;1.10;;;19.90;99.90;;;;;;5027106;28;20266;-61
2023/08/20 09:38:23;;;;;;;3.70;1.15;;;19.90;99.90;;;;;;5033156;28;20052;-61
2023/08/20 09:40:56;;;;;;;4.13;1.42;;;19.90;99.90;;;;;;5042527;28;20060;-62
2023/08/20 09:43:28;;;;;;;7.82;1.50;;;19.90;99.90;;;;;;5046298;28;20480;-62
2023/08/20 09:45:58;;;;;;;6.93;1.27;;;19.90;99.90;;;;;;5036884;28;20622;-61
2023/08/20 09:48:29;;;;;;;5.82;1.50;;;19.90;99.90;;;;;;5057568;28;20048;-62
2023/08/20 09:51:01;;;;;;;7.95;1.50;;;19.90;99.90;;;;;;5049462;28;20396;-62
2023/08/20 09:53:42;;;;;;;6.38;1.40;;;19.90;99.90;;;;;;5059827;28;20060;-62
2023/08/20 09:56:37;;;;;;;7.82;1.35;;;20.00;99.90;;;;;;5049054;28;20052;-62
2023/08/20 09:59:04;;;;;;;6.05;1.25;;;20.10;99.90;;;;;;5048635;28;20049;-62
2023/08/20 10:01:35;;;;;;;3.63;1.10;;;20.30;99.90;;;;;;5045776;28;20041;-63
2023/08/20 10:04:04;;;;;;;6.88;1.20;;;20.30;99.90;;;;;;5030259;28;20087;-62
2023/08/20 10:06:33;;;;;;;5.13;1.02;;;20.40;99.90;;;;;;5029376;28;20056;-62
2023/08/20 10:09:02;;;;;;;8.52;1.75;;;20.50;99.90;;;;;;5043000;28;20034;-61
2023/08/20 10:11:30;;;;;;;8.48;1.42;;;20.50;99.90;;;;;;5050409;28;20049;-63
2023/08/20 10:13:58;;;;;;;4.30;1.10;;;20.50;99.90;;;;;;5048548;28;20044;-63
2023/08/20 10:16:27;;;;;;;5.85;1.15;;;20.60;99.90;;;;;;5047098;28;20040;-63
2023/08/20 10:18:59;;;;;;;8.20;1.13;;;20.60;99.90;;;;;;5033129;28;20045;-63
2023/08/20 10:21:27;;;;;;;7.88;1.33;;;20.70;99.90;;;;;;5037156;28;20075;-62
2023/08/20 10:23:55;;;;;;;5.35;0.90;;;20.90;99.90;;;;;;5030829;28;20045;-63
2023/08/20 10:26:24;;;;;;;5.15;1.33;;;21.10;99.90;;;;;;5033083;28;20048;-62
2023/08/20 10:29:35;;;;;;;11.20;1.60;;;21.30;99.90;;;;;;5048037;28;20033;-62
2023/08/20 10:32:13;;;;;;;6.50;1.42;;;21.50;99.90;;;;;;5035687;28;20060;-62
2023/08/20 10:34:49;;;;;;;4.20;1.00;;;21.80;99.90;;;;;;5030978;28;20523;-63
2023/08/20 10:37:27;;;;;;;4.97;1.35;;;21.90;99.90;;;;;;5029382;28;20049;-62
2023/08/20 10:39:56;;;;;;;5.32;1.20;;;22.20;99.90;;;;;;5033677;28;20603;-63
2023/08/20 10:42:27;;;;;;;6.35;1.70;;;22.30;99.90;;;;;;5031951;28;20508;-64
2023/08/20 10:45:08;;;;;;;3.88;1.35;;;22.40;99.90;;;;;;5037939;28;20052;-62
2023/08/20 10:47:48;;;;;;;5.00;1.00;;;22.50;99.90;;;;;;5049507;28;20052;-62
2023/08/20 10:50:17;;;;;;;3.65;1.15;;;22.50;99.90;;;;;;5043408;28;20053;-63
2023/08/20 10:52:49;;;;;;;6.60;1.20;;;22.50;99.90;;;;;;5031735;28;20052;-63
2023/08/20 10:55:25;;;;;;;4.35;1.15;;;22.40;99.90;;;;;;5031773;28;20045;-62
2023/08/20 10:57:57;;;;;;;2.67;1.02;;;22.30;99.90;;;;;;5038932;28;20044;-63
2023/08/20 11:00:25;;;;;;;4.45;1.13;;;22.10;99.90;;;;;;5059995;28;20053;-63
2023/08/20 11:02:53;;;;;;;4.15;0.95;;;21.90;99.90;;;;;;5040920;28;20773;-63
2023/08/20 11:05:25;;;;;;;6.57;2.00;;;21.80;99.90;;;;;;5034929;28;20037;-63
2023/08/20 11:07:53;;;;;;;6.15;1.27;;;21.70;99.90;;;;;;5034327;28;20115;-63
2023/08/20 11:10:21;;;;;;;4.45;1.55;;;21.60;99.90;;;;;;5026961;28;20045;-63
2023/08/20 11:12:49;;;;;;;7.93;1.45;;;21.60;99.90;;;;;;5032333;28;20045;-63
2023/08/20 11:15:17;;;;;;;6.30;1.85;;;21.60;99.90;;;;;;5042372;28;20033;-63
2023/08/20 11:17:48;;;;;;;4.88;1.10;;;21.60;99.90;;;;;;5035498;28;20033;-64
2023/08/20 11:20:21;;;;;;;2.45;0.80;;;21.60;99.90;;;;;;5035726;28;20055;-63
2023/08/20 11:22:49;;;;;;;5.35;1.20;;;21.60;99.90;;;;;;5042413;28;20036;-63
2023/08/20 11:25:17;;;;;;;6.28;1.35;;;21.50;99.90;;;;;;5043014;28;20049;-63
2023/08/20 11:27:44;;;;;;;4.30;1.30;;;21.50;99.90;;;;;;5033567;28;20049;-63
2023/08/20 11:30:13;;;;;;;3.88;1.10;;;21.60;99.90;;;;;;5012919;28;20055;-63
2023/08/20 11:32:42;;;;;;;4.03;1.60;;;21.80;99.90;;;;;;5033715;28;20044;-63
2023/08/20 11:35:11;;;;;;;4.82;1.38;;;22.10;99.90;;;;;;5027534;28;20416;-64
2023/08/20 11:37:40;;;;;;;3.83;1.58;;;22.50;99.90;;;;;;5030595;28;20037;-63
2023/08/20 11:40:08;;;;;;;5.73;1.70;;;22.70;99.90;;;;;;5028042;28;20056;-63
2023/08/20 11:42:36;;;;;;;4.97;2.20;;;22.80;99.90;;;;;;5036601;28;20048;-63
2023/08/20 11:45:04;;;;;;;7.45;1.80;;;22.90;99.90;;;;;;5026659;28;20060;-63
2023/08/20 11:47:41;;;;;;;4.65;2.17;;;22.90;99.90;;;;;;5031827;28;20057;-63
2023/08/20 11:50:10;;;;;;;5.45;1.80;;;23.00;99.90;;;;;;5036403;28;20045;-64
2023/08/20 11:52:42;;;;;;;6.03;1.40;;;22.90;99.90;;;;;;5029382;28;20052;-63
2023/08/20 11:55:10;;;;;;;2.88;1.15;;;23.00;99.90;;;;;;5037552;28;20060;-63
2023/08/20 11:57:37;;;;;;;5.35;1.98;;;23.20;99.90;;;;;;5039997;28;20049;-62
2023/08/20 12:00:12;;;;;;;3.45;0.93;;;23.30;99.90;;;;;;5047931;28;20060;-63
2023/08/20 12:02:42;;;;;;;2.88;1.02;;;23.40;99.90;;;;;;5040060;28;20477;-62
2023/08/20 12:05:10;;;;;;;3.35;1.20;;;23.40;99.90;;;;;;5029699;28;20394;-62
2023/08/20 12:07:38;;;;;;;3.83;1.10;;;23.20;99.90;;;;;;5034778;28;20487;-62
2023/08/20 12:10:25;;;;;;;2.80;0.70;;;23.00;99.90;;;;;;5044145;28;20056;-62
2023/08/20 12:12:54;;;;;;;4.03;0.98;;;22.60;99.90;;;;;;5034734;28;20464;-63
2023/08/20 12:15:25;;;;;;;2.50;0.70;;;22.40;99.90;;;;;;5027836;28;20053;-63
2023/08/20 12:17:59;;;;;;;4.10;1.02;;;22.30;99.90;;;;;;5032716;28;20057;-63
2023/08/20 12:20:29;;;;;;;2.60;0.70;;;22.40;99.90;;;;;;5041493;28;20075;-63
2023/08/20 12:23:05;;;;;;;2.78;0.60;;;22.40;99.90;;;;;;5028388;28;20056;-63
2023/08/20 12:25:35;;;;;;;3.30;0.80;;;22.50;99.90;;;;;;5043711;28;20063;-63
2023/08/20 12:28:06;;;;;;;2.67;0.68;;;22.50;99.90;;;;;;5034066;28;20056;-63
2023/08/20 12:30:35;;;;;;;2.58;0.60;;;22.50;99.90;;;;;;5039624;28;20054;-63
2023/08/20 12:33:06;;;;;;;2.88;0.60;;;22.50;99.90;;;;;;5044592;28;20060;-63
2023/08/20 12:35:35;;;;;;;2.10;0.70;;;22.50;99.90;;;;;;5042887;28;20127;-62
2023/08/20 12:38:04;;;;;;;0.63;0.40;;;22.60;99.90;;;;;;5039196;28;20033;-62
2023/08/20 12:40:31;;;;;;;2.40;0.60;;;22.70;99.90;;;;;;5064587;28;20507;-62
2023/08/20 12:42:59;;;;;;;2.22;0.60;;;22.70;99.90;;;;;;5057881;28;20041;-63
2023/08/20 12:45:27;;;;;;;1.02;0.50;;;22.80;99.90;;;;;;5038978;28;20052;-63
2023/08/20 12:47:54;;;;;;;3.70;0.60;;;22.90;99.90;;;;;;5028734;28;20292;-63
2023/08/20 12:50:25;;;;;;;2.83;0.57;;;23.00;99.90;;;;;;5040641;28;20053;-64
2023/08/20 12:52:53;;;;;;;5.40;0.60;;;23.30;99.90;;;;;;5024917;28;20057;-62
2023/08/20 12:55:21;;;;;;;4.05;0.55;;;23.60;99.90;;;;;;5024578;28;20060;-64
2023/08/20 12:57:59;;;;;;;2.72;0.57;;;24.00;99.90;;;;;;5027704;28;20037;-63